Time;durP1;ratioP1;P1;durP2;ratioP2;P2;SDS_P1;SDS_P2;PMS_P1;PMS_P2;Temp;Humidity;BMP_temperature;BMP_pressure;BME280_temperature;BME280_humidity;BME280_pressure;Samples;Min_cycle;Max_cycle;Signal;HPM_P1;HPM_P2
2022/06/22 00:00:18;;;;;;;5.65;4.10;;;21.70;98.50;;;;;;4999948;28;20121;-68
2022/06/22 00:02:47;;;;;;;5.55;3.58;;;21.70;98.70;;;;;;5010357;28;20089;-68
2022/06/22 00:05:23;;;;;;;4.55;3.70;;;21.70;99.00;;;;;;5011367;28;20030;-69
2022/06/22 00:08:02;;;;;;;8.52;3.95;;;21.70;99.20;;;;;;5010622;28;20026;-69
2022/06/22 00:10:37;;;;;;;5.95;3.85;;;21.60;99.40;;;;;;5010439;28;20076;-68
2022/06/22 00:13:13;;;;;;;5.55;3.85;;;21.60;99.60;;;;;;5010912;28;20038;-69
2022/06/22 00:15:51;;;;;;;5.15;3.90;;;21.60;99.80;;;;;;5010441;28;20379;-68
2022/06/22 00:18:40;;;;;;;5.18;3.67;;;21.50;99.90;;;;;;4995894;28;20339;-68
2022/06/22 00:21:30;;;;;;;8.23;4.47;;;21.50;99.90;;;;;;5010726;28;20030;-68
2022/06/22 00:23:59;;;;;;;7.22;4.38;;;21.50;99.90;;;;;;5002835;28;20058;-69
2022/06/22 00:26:25;;;;;;;4.85;4.05;;;21.40;99.90;;;;;;4996898;28;20030;-69
2022/06/22 00:29:08;;;;;;;7.18;4.22;;;21.50;99.90;;;;;;4999709;28;20037;-69
2022/06/22 00:31:48;;;;;;;5.72;4.47;;;21.40;99.90;;;;;;5006036;28;20387;-72
2022/06/22 00:34:15;;;;;;;5.30;4.30;;;21.40;99.90;;;;;;5003498;28;20041;-68
2022/06/22 00:36:54;;;;;;;4.97;3.92;;;21.40;99.90;;;;;;5010525;28;20026;-69
2022/06/22 00:39:28;;;;;;;4.53;4.13;;;21.40;99.90;;;;;;4992782;28;20026;-68
2022/06/22 00:41:56;;;;;;;5.85;4.10;;;21.40;99.90;;;;;;4991474;28;20273;-68
2022/06/22 00:44:28;;;;;;;7.15;4.45;;;21.40;99.90;;;;;;4992145;28;20093;-68
2022/06/22 00:47:04;;;;;;;4.88;3.92;;;21.30;99.90;;;;;;4999020;28;20594;-68
2022/06/22 00:49:31;;;;;;;5.57;4.10;;;21.30;99.90;;;;;;5000584;28;20080;-69
2022/06/22 00:52:07;;;;;;;7.38;4.78;;;21.30;99.90;;;;;;5004530;28;20026;-69
2022/06/22 00:54:35;;;;;;;8.95;5.07;;;21.30;99.90;;;;;;5010593;28;20041;-70
2022/06/22 00:57:14;;;;;;;7.07;4.53;;;21.20;99.90;;;;;;5010605;28;20033;-68
2022/06/22 00:59:51;;;;;;;6.00;4.55;;;21.20;99.90;;;;;;4992537;28;20062;-68
2022/06/22 01:02:56;;;;;;;5.78;4.35;;;21.20;99.90;;;;;;5004696;28;20041;-69
2022/06/22 01:05:29;;;;;;;7.32;5.28;;;21.20;99.90;;;;;;5005119;28;20030;-69
2022/06/22 01:08:08;;;;;;;7.03;5.00;;;21.10;99.90;;;;;;4991790;28;20282;-69
2022/06/22 01:10:47;;;;;;;7.93;4.60;;;21.10;99.90;;;;;;4996313;28;20022;-69
2022/06/22 01:13:22;;;;;;;6.28;4.75;;;21.10;99.90;;;;;;4996889;28;20113;-68
2022/06/22 01:16:04;;;;;;;6.93;4.53;;;21.10;99.90;;;;;;5006482;28;20124;-69
2022/06/22 01:18:34;;;;;;;4.45;4.05;;;21.10;99.90;;;;;;5006066;28;20033;-69
2022/06/22 01:21:27;;;;;;;5.68;4.28;;;21.10;99.90;;;;;;4999191;28;20033;-69
2022/06/22 01:24:16;;;;;;;6.45;4.32;;;21.10;99.90;;;;;;4994822;28;20046;-69
2022/06/22 01:27:06;;;;;;;6.97;5.57;;;21.00;99.90;;;;;;4995218;28;20384;-70
2022/06/22 01:29:32;;;;;;;8.25;4.70;;;21.10;99.90;;;;;;5009765;28;20054;-69
2022/06/22 01:32:01;;;;;;;5.28;4.78;;;21.00;99.90;;;;;;5013537;28;20112;-69
2022/06/22 01:34:44;;;;;;;9.07;5.43;;;21.10;99.90;;;;;;4995878;28;20074;-69
2022/06/22 01:37:27;;;;;;;10.07;5.72;;;21.10;99.90;;;;;;5009680;28;20034;-69
2022/06/22 01:40:11;;;;;;;6.70;5.05;;;21.00;99.90;;;;;;4997622;28;20503;-68
2022/06/22 01:43:02;;;;;;;5.88;4.78;;;21.00;99.90;;;;;;4995312;28;20046;-72
2022/06/22 01:45:51;;;;;;;5.35;4.90;;;21.00;99.90;;;;;;5007880;28;20054;-68
2022/06/22 01:48:33;;;;;;;6.90;6.18;;;21.00;99.90;;;;;;5010334;28;20030;-69
2022/06/22 01:51:08;;;;;;;6.35;5.47;;;20.90;99.90;;;;;;5005329;28;20105;-69
2022/06/22 01:53:48;;;;;;;7.53;5.70;;;20.90;99.90;;;;;;5008536;28;20034;-69
2022/06/22 01:56:34;;;;;;;6.97;5.13;;;20.90;99.90;;;;;;5001748;28;20027;-70
2022/06/22 01:59:24;;;;;;;9.65;5.70;;;;;;;;;;4994297;28;20026;-70
2022/06/22 02:02:03;;;;;;;8.98;6.25;;;;;;;;;;4995201;28;20572;-69
2022/06/22 02:04:31;;;;;;;8.63;5.97;;;;;;;;;;5002060;28;20041;-68
2022/06/22 02:07:44;;;;;;;8.30;5.90;;;;;;;;;;5012864;28;20030;-68
2022/06/22 02:10:33;;;;;;;8.13;5.68;;;;;;;;;;4996277;28;20491;-67
2022/06/22 02:12:59;;;;;;;6.43;5.53;;;;;;;;;;4999358;28;20034;-69
2022/06/22 02:15:30;;;;;;;8.88;6.07;;;;;;;;;;5014075;28;20033;-68
2022/06/22 02:17:56;;;;;;;9.85;5.82;;;;;;;;;;5012929;28;20054;-69
2022/06/22 02:20:28;;;;;;;7.05;5.20;;;;;;;;;;5002807;28;20040;-69
2022/06/22 02:22:56;;;;;;;8.63;6.13;;;;;;;;;;4993572;28;20039;-69
2022/06/22 02:25:24;;;;;;;8.32;5.80;;;;;;;;;;5000901;28;20483;-69
2022/06/22 02:27:50;;;;;;;6.72;5.72;;;;;;;;;;4993717;28;20472;-68
2022/06/22 02:30:16;;;;;;;6.25;5.32;;;;;;;;;;4993581;28;20046;-69
2022/06/22 02:32:44;;;;;;;8.15;5.97;;;;;;;;;;4993272;28;20033;-72
2022/06/22 02:35:11;;;;;;;6.00;5.38;;;;;;;;;;4993875;28;20518;-70
2022/06/22 02:37:39;;;;;;;7.70;5.40;;;;;;;;;;4994358;28;20490;-69
2022/06/22 02:40:07;;;;;;;7.45;5.70;;;;;;;;;;4993694;28;20026;-68
2022/06/22 02:45:18;;;;;;;9.18;6.15;;;;;;;;;;4993806;28;20045;-68
2022/06/22 02:47:47;;;;;;;10.65;6.22;;;;;;;;;;4993236;28;20456;-70
2022/06/22 02:50:24;;;;;;;7.47;5.85;;;;;;;;;;4991956;28;20078;-69
2022/06/22 02:52:52;;;;;;;7.22;5.90;;;;;;;;;;4993164;28;20042;-69
2022/06/22 02:55:20;;;;;;;8.32;6.68;;;;;;;;;;4993831;28;20037;-68
2022/06/22 02:57:48;;;;;;;6.57;5.72;;;;;;;;;;4992862;28;20498;-69
2022/06/22 03:00:15;;;;;;;6.80;6.05;;;;;;;;;;4993575;28;20030;-69
2022/06/22 03:02:41;;;;;;;6.68;5.82;;;;;;;;;;4993223;28;20030;-71
2022/06/22 03:05:08;;;;;;;7.88;6.10;;;;;;;;;;4991459;28;20037;-67
2022/06/22 03:07:38;;;;;;;9.00;6.78;;;;;;;;;;4995788;28;20030;-68
2022/06/22 03:10:04;;;;;;;;;;;;;;;;;;4993039;28;20497;-69
2022/06/22 03:12:30;;;;;;;10.38;6.63;;;;;;;;;;4993815;28;19909;-69
2022/06/22 03:15:02;;;;;;;9.18;7.00;;;;;;;;;;4992486;28;20031;-68
2022/06/22 03:17:33;;;;;;;7.00;6.32;;;;;;;;;;5008429;28;20037;-68
2022/06/22 03:20:03;;;;;;;8.40;6.47;;;;;;;;;;4992649;28;20042;-68
2022/06/22 03:22:40;;;;;;;7.63;6.88;;;;;;;;;;4992869;28;20491;-68
2022/06/22 03:25:24;;;;;;;6.93;6.25;;;;;;;;;;4995300;28;20153;-69
2022/06/22 03:27:52;;;;;;;7.82;6.65;;;;;;;;;;4991365;28;20493;-68
2022/06/22 03:30:20;;;;;;;7.68;6.80;;;;;;;;;;5006052;28;20116;-70
2022/06/22 03:32:55;;;;;;;7.70;6.43;;;;;;;;;;4996335;28;20107;-73
2022/06/22 03:35:32;;;;;;;10.43;6.57;;;;;;;;;;4993096;28;20042;-68
2022/06/22 03:38:03;;;;;;;7.45;6.75;;;;;;;;;;4993496;28;20042;-69
2022/06/22 03:40:36;;;;;;;7.85;6.95;;;;;;;;;;4994477;28;20664;-68
2022/06/22 03:43:07;;;;;;;9.68;7.35;;;;;;;;;;4997751;28;20403;-69
2022/06/22 03:45:39;;;;;;;7.55;6.63;;;;;;;;;;4993071;28;20027;-68
2022/06/22 03:48:12;;;;;;;7.68;6.88;;;;;;;;;;5003073;28;20026;-68
2022/06/22 03:50:42;;;;;;;8.45;7.63;;;;;;;;;;5007889;28;20170;-68
2022/06/22 03:53:08;;;;;;;9.50;7.50;;;;;;;;;;5010678;28;20045;-69
2022/06/22 03:55:39;;;;;;;8.27;7.15;;;;;;;;;;4998362;28;20227;-69
2022/06/22 03:58:07;;;;;;;10.25;7.70;;;;;;;;;;4997524;28;20030;-69
2022/06/22 04:00:38;;;;;;;8.98;6.65;;;;;;;;;;4992877;28;20022;-69
2022/06/22 04:03:05;;;;;;;8.10;6.85;;;;;;;;;;4996033;28;20235;-68
2022/06/22 04:05:38;;;;;;;8.52;6.88;;;;;;;;;;5011526;28;20050;-69
2022/06/22 04:08:05;;;;;;;8.65;6.47;;;;;;;;;;5010849;28;20836;-69
2022/06/22 04:10:48;;;;;;;8.27;6.40;;;;;;;;;;4997124;28;20424;-70
2022/06/22 04:13:17;;;;;;;7.22;6.57;;;;;;;;;;4992284;28;20479;-68
2022/06/22 04:15:47;;;;;;;8.13;6.20;;;;;;;;;;4996682;28;20027;-69
2022/06/22 04:18:17;;;;;;;7.00;6.30;;;;;;;;;;5003053;28;20065;-69
2022/06/22 04:20:52;;;;;;;10.57;7.33;;;;;;;;;;5011501;28;20030;-68
2022/06/22 04:23:18;;;;;;;10.43;7.70;;;;;;;;;;4997077;28;20144;-67
2022/06/22 04:25:45;;;;;;;11.65;8.38;;;;;;;;;;4999729;28;20026;-69
2022/06/22 04:28:14;;;;;;;9.10;7.43;;;;;;;;;;5010709;28;20042;-68
2022/06/22 04:30:44;;;;;;;9.68;6.90;;;;;;;;;;5003495;28;20050;-68
2022/06/22 04:33:29;;;;;;;10.85;7.43;;;;;;;;;;5006861;28;20962;-68
2022/06/22 04:35:57;;;;;;;12.35;6.88;;;;;;;;;;4998447;28;20093;-68
2022/06/22 04:38:23;;;;;;;8.48;6.68;;;;;;;;;;5010893;28;20138;-68
2022/06/22 04:40:55;;;;;;;7.57;6.63;;;;;;;;;;5010453;28;20025;-73
2022/06/22 04:43:21;;;;;;;10.48;7.38;;;;;;;;;;5009986;28;20033;-68
2022/06/22 04:45:47;;;;;;;10.88;7.72;;;;;;;;;;5009496;28;20466;-73
2022/06/22 04:48:16;;;;;;;10.48;7.70;;;;;;;;;;5010396;28;20025;-69
2022/06/22 04:50:44;;;;;;;12.23;8.57;;;;;;;;;;5009072;28;20030;-69
2022/06/22 04:53:22;;;;;;;14.57;8.38;;;;;;;;;;4999931;28;20030;-69
2022/06/22 04:55:49;;;;;;;9.55;7.82;;;;;;;;;;5002785;28;20100;-71
2022/06/22 04:58:34;;;;;;;10.15;8.15;;;;;;;;;;5010921;28;20132;-69
2022/06/22 05:01:00;;;;;;;13.15;8.38;;;;;;;;;;4999304;28;20121;-69
2022/06/22 05:03:27;;;;;;;11.05;8.10;;;;;;;;;;4991876;28;20030;-68
2022/06/22 05:05:54;;;;;;;10.07;6.90;;;;;;;;;;4991039;28;20101;-69
2022/06/22 05:08:26;;;;;;;10.98;7.28;;;;;;;;;;4995614;28;20371;-69
2022/06/22 05:10:55;;;;;;;15.98;7.88;;;;;;;;;;4993513;28;20065;-71
2022/06/22 05:13:23;;;;;;;11.30;7.30;;;;;;;;;;4995545;28;20058;-67
2022/06/22 05:15:52;;;;;;;13.73;7.72;;;;;;;;;;5011017;28;20559;-72
2022/06/22 05:18:20;;;;;;;14.77;7.43;;;;;;;;;;4992731;28;20104;-69
2022/06/22 05:20:54;;;;;;;10.50;7.13;;;;;;;;;;4992090;28;20026;-68
2022/06/22 05:23:21;;;;;;;10.65;7.20;;;;;;;;;;4991861;28;20114;-68
2022/06/22 05:25:48;;;;;;;11.45;7.50;;;;;;;;;;4998591;28;20474;-68
2022/06/22 05:28:17;;;;;;;14.00;8.98;;;;;;;;;;4995191;28;20035;-69
2022/06/22 05:30:46;;;;;;;8.95;7.97;;;;;;;;;;4993034;28;20517;-77
2022/06/22 05:33:15;;;;;;;10.98;6.97;;;;;;;;;;4997247;28;20111;-78
2022/06/22 05:35:43;;;;;;;9.10;6.68;;;;;;;;;;5002331;28;20030;-77
2022/06/22 05:38:10;;;;;;;11.20;6.78;;;;;;;;;;4991560;28;20022;-78
2022/06/22 05:40:38;;;;;;;8.80;5.90;;;;;;;;;;4992714;28;20015;-76
2022/06/22 05:43:05;;;;;;;9.30;7.15;;;;;;;;;;4991540;28;20036;-77
2022/06/22 05:45:33;;;;;;;8.02;6.80;;;;;;;;;;4997178;28;20022;-78
2022/06/22 05:47:59;;;;;;;11.57;7.30;;;;;;;;;;5008965;28;20105;-78
2022/06/22 05:50:31;;;;;;;8.30;6.93;;;;;;;;;;5010497;28;20026;-81
2022/06/22 05:53:06;;;;;;;12.68;8.02;;;;;;;;;;5010145;28;20026;-79
2022/06/22 05:55:58;;;;;;;13.43;8.82;;;;;;;;;;5008576;28;20025;-76
2022/06/22 05:58:34;;;;;;;8.80;7.32;;;;;;;;;;4985107;28;20399;-77
2022/06/22 06:01:02;;;;;;;15.27;8.02;;;;;;;;;;5013629;28;20064;-77
2022/06/22 06:03:31;;;;;;;13.82;7.32;;;;;;;;;;5005932;28;20105;-77
2022/06/22 06:06:10;;;;;;;7.05;6.35;;;;;;;;;;4997880;28;20039;-76
2022/06/22 06:08:42;;;;;;;12.52;6.63;;;;;;;;;;5007613;28;20030;-78
2022/06/22 06:11:13;;;;;;;8.23;6.63;;;;;;;;;;4982358;28;20472;-79
2022/06/22 06:13:41;;;;;;;10.07;7.25;;;;;;;;;;5001958;28;20033;-77
2022/06/22 06:16:09;;;;;;;9.48;7.00;;;;;;;;;;5017961;28;20057;-76
2022/06/22 06:18:38;;;;;;;10.63;6.20;;;;;;;;;;5016881;28;20036;-78
2022/06/22 06:21:07;;;;;;;9.85;5.70;;;;;;;;;;5019299;28;20030;-77
2022/06/22 06:23:33;;;;;;;10.90;6.47;;;;;;;;;;5011968;28;20030;-77
2022/06/22 06:28:49;;;;;;;7.60;6.00;;;;;;;;;;5008059;28;20029;-78
2022/06/22 06:31:22;;;;;;;8.57;6.55;;;;;;;;;;4994292;28;20130;-78
2022/06/22 06:33:48;;;;;;;11.82;6.50;;;;;;;;;;4980927;28;20066;-78
2022/06/22 06:36:19;;;;;;;13.52;7.13;;;;;;;;;;4984601;28;20596;-78
2022/06/22 06:38:50;;;;;;;9.80;7.18;;;;;;;;;;4983042;28;20117;-78
2022/06/22 06:41:22;;;;;;;9.95;6.35;;;;;;;;;;4974140;28;20030;-79
2022/06/22 06:43:51;;;;;;;8.65;6.47;;;;;;;;;;4982655;28;20037;-78
2022/06/22 06:46:22;;;;;;;10.23;6.82;;;;;;;;;;4982359;28;20027;-79
2022/06/22 06:48:52;;;;;;;8.75;7.07;;;;;;;;;;4998770;28;20034;-78
2022/06/22 06:51:20;;;;;;;9.75;6.25;;;;;;;;;;4988899;28;20031;-78
2022/06/22 06:53:48;;;;;;;8.82;7.28;;;;;;;;;;4986020;28;20034;-79
2022/06/22 06:56:19;;;;;;;12.27;7.70;;;;;;;;;;4983164;28;20490;-78
2022/06/22 06:58:50;;;;;;;13.77;7.15;;;;;;;;;;4986541;28;20089;-78
2022/06/22 07:01:19;;;;;;;9.02;6.97;;;;;;;;;;4992753;28;20065;-77
2022/06/22 07:03:45;;;;;;;9.88;7.68;;;;;;;;;;4990320;28;20058;-77
2022/06/22 07:06:11;;;;;;;10.90;7.47;;;;;;;;;;4992785;28;20049;-74
2022/06/22 07:08:38;;;;;;;15.05;8.27;;;;;;;;;;4991819;28;20022;-69
2022/06/22 07:11:19;;;;;;;11.77;7.50;;;;;;;;;;4974249;28;20034;-70
2022/06/22 07:13:47;;;;;;;10.93;7.50;;;;;;;;;;4974483;28;20119;-70
2022/06/22 07:16:15;;;;;;;12.10;7.93;;;;;;;;;;4982462;28;20129;-70
2022/06/22 07:18:47;;;;;;;13.82;7.45;;;;;;;;;;4979685;28;20105;-71
2022/06/22 07:21:18;;;;;;;9.80;6.57;;;;;;;;;;4997503;28;20041;-71
2022/06/22 07:23:52;;;;;;;11.13;6.70;;;;;;;;;;4999931;28;20041;-72
2022/06/22 07:26:26;;;;;;;12.70;7.10;;;;;;;;;;4992668;28;20029;-70
2022/06/22 07:29:02;;;;;;;9.45;7.20;;;;;;;;;;4977375;28;20035;-70
2022/06/22 07:31:31;;;;;;;15.70;8.20;;;;;;;;;;4995331;28;20165;-71
2022/06/22 07:34:04;;;;;;;12.27;6.90;;;;;;;;;;5000647;28;20030;-74
2022/06/22 07:36:31;;;;;;;13.45;7.90;;;;;;;;;;5012807;28;20745;-69
2022/06/22 07:39:00;;;;;;;11.18;6.88;;;;;;;;;;5012501;28;20041;-73
2022/06/22 07:41:29;;;;;;;17.45;7.85;;;;;;;;;;5003981;28;20030;-70
2022/06/22 07:43:55;;;;;;;11.75;7.72;;;;;;;;;;5012103;28;20129;-71
2022/06/22 07:46:26;;;;;;;11.00;7.60;;;;;;;;;;5009680;28;20098;-71
2022/06/22 07:48:54;;;;;;;11.05;7.70;;;;;;;;;;5011338;28;20032;-70
2022/06/22 07:51:23;;;;;;;10.00;8.23;;;;;;;;;;5014314;28;20565;-70
2022/06/22 07:53:59;;;;;;;11.45;8.20;;;;;;;;;;5004565;28;20034;-71
2022/06/22 07:56:28;;;;;;;11.18;7.80;;;;;;;;;;5009972;28;20446;-70
2022/06/22 07:59:15;;;;;;;13.32;6.78;;;;;;;;;;5009485;28;20084;-72
2022/06/22 08:01:43;;;;;;;9.90;7.55;;;;;;;;;;5000185;28;20110;-71
2022/06/22 08:04:22;;;;;;;13.55;7.60;;;;;;;;;;5005580;28;20038;-71
2022/06/22 08:06:51;;;;;;;17.40;7.88;;;;;;;;;;5015512;28;20101;-72
2022/06/22 08:09:36;;;;;;;10.60;6.95;;;;;;;;;;5011511;28;20022;-72
2022/06/22 08:12:06;;;;;;;14.43;6.93;;;;;;;;;;5011749;28;20084;-71
2022/06/22 08:14:42;;;;;;;13.95;6.30;;;;;;;;;;5005777;28;20360;-73
2022/06/22 08:17:15;;;;;;;13.32;6.88;;;;;;;;;;5011446;28;20084;-72
2022/06/22 08:19:41;;;;;;;9.57;6.50;;;;;;;;;;5010875;28;20030;-72
2022/06/22 08:22:09;;;;;;;11.40;6.72;;;;;;;;;;5011698;28;20029;-72
2022/06/22 08:24:40;;;;;;;10.82;6.25;;;;;;;;;;5006667;28;20034;-72
2022/06/22 08:27:06;;;;;;;8.52;6.03;;;;;;;;;;5011337;28;20108;-73
2022/06/22 08:29:34;;;;;;;6.30;5.15;;;;;;;;;;4995788;28;20129;-73
2022/06/22 08:32:10;;;;;;;9.70;5.88;;;;;;;;;;5002942;28;20048;-74
2022/06/22 08:34:42;;;;;;;10.82;6.32;;;;;;;;;;5003875;28;20026;-73
2022/06/22 08:37:13;;;;;;;10.80;6.70;;;;;;;;;;5010962;28;20033;-72
2022/06/22 08:39:42;;;;;;;9.55;5.60;;;;;;;;;;5010786;28;20026;-72
2022/06/22 08:42:11;;;;;;;14.32;6.80;;;;;;;;;;5010233;28;20029;-72
2022/06/22 08:44:56;;;;;;;9.10;5.88;;;;;;;;;;5011494;28;20144;-72
2022/06/22 08:47:21;;;;;;;10.93;5.95;;;;;;;;;;5007207;28;20463;-73
2022/06/22 08:50:06;;;;;;;9.95;7.10;;;;;;;;;;5011488;28;20029;-72
2022/06/22 08:52:35;;;;;;;13.20;6.63;;;;;;;;;;5003818;28;20032;-72
2022/06/22 08:55:20;;;;;;;10.85;6.20;;;;;;;;;;5004079;28;20022;-72
2022/06/22 08:58:12;;;;;;;7.40;6.45;;;;;;;;;;5003617;28;20404;-72
2022/06/22 09:00:44;;;;;;;12.05;5.93;;;;;;;;;;5003255;28;20040;-73
2022/06/22 09:03:11;;;;;;;12.13;6.13;;;;;;;;;;5002894;28;20390;-72
2022/06/22 09:05:57;;;;;;;8.52;6.15;;;;;;;;;;5003934;28;20022;-72
2022/06/22 09:08:42;;;;;;;9.70;6.50;;;;;;;;;;5004971;28;20038;-72
2022/06/22 09:11:27;;;;;;;10.00;6.95;;;;;;;;;;5000879;28;20042;-72
2022/06/22 09:14:22;;;;;;;10.95;6.68;;;;;;;;;;5009035;28;20537;-72
2022/06/22 09:16:48;;;;;;;13.07;7.22;;;;;;;;;;4992027;28;20050;-73
2022/06/22 09:19:29;;;;;;;8.23;5.80;;;;;;;;;;5002544;28;20081;-73
2022/06/22 09:22:06;;;;;;;14.35;7.70;;;;;;;;;;4993164;28;20044;-72
2022/06/22 09:24:40;;;;;;;9.98;7.25;;;;;;;;;;4985211;28;20100;-72
2022/06/22 09:27:06;;;;;;;15.20;7.70;;;;;;;;;;5009675;28;20026;-71
2022/06/22 09:29:41;;;;;;;17.42;7.57;;;;;;;;;;5012595;28;20069;-73
2022/06/22 09:32:27;;;;;;;13.93;7.63;;;;;;;;;;5006351;28;20553;-72
2022/06/22 09:35:12;;;;;;;14.07;7.55;;;;;;;;;;5013536;28;20033;-72
2022/06/22 09:37:41;;;;;;;16.23;8.48;;;;;;;;;;5010341;28;20041;-72
2022/06/22 09:40:10;;;;;;;13.43;7.05;;;;;;;;;;5007211;28;20475;-72
2022/06/22 09:42:42;;;;;;;14.32;7.57;;;;;;;;;;4993155;28;20022;-72
2022/06/22 09:45:09;;;;;;;8.70;6.47;;;;;;;;;;5013584;28;20044;-72
2022/06/22 09:47:35;;;;;;;16.75;7.65;;;;;;;;;;5006135;28;20070;-72
2022/06/22 09:50:04;;;;;;;14.07;8.20;;;;;;;;;;4996821;28;20053;-71
2022/06/22 09:52:48;;;;;;;10.20;7.38;;;;;;;;;;5009222;28;20034;-72
2022/06/22 09:58:39;;;;;;;7.70;5.75;;;;;;;;;;5006024;28;20236;-72
2022/06/22 10:01:08;;;;;;;11.82;6.25;;;;;;;;;;5003281;28;20553;-72
2022/06/22 10:03:35;;;;;;;18.65;7.15;;;;;;;;;;4999283;28;20034;-71
2022/06/22 10:06:01;;;;;;;9.10;6.05;;;;;;;;;;5010853;28;20030;-73
2022/06/22 10:08:27;;;;;;;10.15;5.97;;;;;;;;;;5014110;28;20438;-72
2022/06/22 10:11:12;;;;;;;18.48;6.88;;;;;;;;;;5012874;28;20026;-72
2022/06/22 10:13:43;;;;;;;8.63;5.72;;;;;;;;;;5009713;28;20110;-72
2022/06/22 10:16:28;;;;;;;14.80;6.30;;;;;;;;;;5004630;28;20029;-73
2022/06/22 10:19:09;;;;;;;9.15;6.15;;;;;;;;;;5012779;28;20030;-72
2022/06/22 10:21:35;;;;;;;10.93;6.45;;;;;;;;;;5003804;28;20502;-72
2022/06/22 10:24:07;;;;;;;11.45;6.63;;;;;;;;;;5012670;28;20042;-74
2022/06/22 10:26:33;;;;;;;13.18;5.80;;;;;;;;;;5001729;28;20455;-72
2022/06/22 10:28:59;;;;;;;14.40;6.32;;;;;;;;;;4990345;28;20030;-72
2022/06/22 10:31:44;;;;;;;11.88;6.72;;;;;;;;;;5007190;28;20060;-72
2022/06/22 10:34:22;;;;;;;11.05;6.47;;;;;;;;;;5007401;28;20475;-72
2022/06/22 10:37:06;;;;;;;8.77;6.72;;;;;;;;;;4997674;28;20026;-72
2022/06/22 10:39:38;;;;;;;8.70;7.00;;;;;;;;;;5015557;28;20030;-73
2022/06/22 10:45:10;;;;;;;12.60;8.63;;;;;;;;;;5012076;28;20147;-75
2022/06/22 10:47:36;;;;;;;13.85;8.30;;;;;;;;;;5006866;28;20441;-73
2022/06/22 10:50:02;;;;;;;16.95;9.38;;;;;;;;;;5003456;28;20104;-71
2022/06/22 10:52:28;;;;;;;15.57;8.65;;;;;;;;;;5013229;28;20029;-72
2022/06/22 10:55:13;;;;;;;11.98;8.73;;;;;;;;;;5014231;28;20041;-71
2022/06/22 10:57:58;;;;;;;14.65;8.88;;;;;;;;;;5008275;28;20026;-72
2022/06/22 11:00:32;;;;;;;9.90;7.95;;;;;;;;;;5009098;28;20241;-72
2022/06/22 11:03:04;;;;;;;11.43;7.95;;;;;;;;;;5007839;28;20019;-71
2022/06/22 11:05:39;;;;;;;9.93;6.00;;;;;;;;;;5008577;28;20029;-74
2022/06/22 11:08:15;;;;;;;8.60;5.78;;;;;;;;;;5011515;28;20037;-75
2022/06/22 11:10:47;;;;;;;9.52;6.93;;;;;;;;;;4996029;28;20033;-75
2022/06/22 11:13:22;;;;;;;7.28;6.47;;;;;;;;;;5000488;28;20053;-74
2022/06/22 11:16:02;;;;;;;12.38;7.00;;;;;;;;;;4995253;28;20113;-73
2022/06/22 11:18:54;;;;;;;8.65;5.97;;;;;;;;;;5005771;28;20120;-72
2022/06/22 11:21:45;;;;;;;9.82;6.00;;;;;;;;;;4979792;28;20046;-72
2022/06/22 11:24:11;;;;;;;;;;;;;;;;;;5003936;28;20062;-73
2022/06/22 11:32:53;;;;;;;10.70;6.07;;;;;;;;;;5002790;28;20506;-74
2022/06/22 11:35:21;;;;;;;13.15;6.35;;;;;;;;;;5006128;28;20568;-73
2022/06/22 11:37:54;;;;;;;9.15;6.05;;;;;;;;;;5009374;28;20030;-73
2022/06/22 11:40:29;;;;;;;10.10;6.07;;;;;;;;;;5010748;28;20102;-74
2022/06/22 11:43:01;;;;;;;15.10;6.40;;;;;;;;;;5011114;28;20048;-72
2022/06/22 11:45:51;;;;;;;7.25;6.30;;;;;;;;;;5000628;28;20041;-73
2022/06/22 11:48:23;;;;;;;10.43;6.25;;;;;;;;;;5009212;28;20021;-73
2022/06/22 11:51:04;;;;;;;12.35;7.00;;;;;;;;;;5011405;28;20360;-72
2022/06/22 11:53:41;;;;;;;7.63;6.70;;;;;;;;;;5010523;28;20026;-72
2022/06/22 11:56:30;;;;;;;19.08;7.65;;;;;;;;;;5007731;28;20184;-72
2022/06/22 11:59:06;;;;;;;8.55;6.13;;;;;;;;;;5002505;28;20034;-72
2022/06/22 12:01:41;;;;;;;9.50;6.00;;;;;;;;;;5010836;28;20030;-73
2022/06/22 12:04:10;;;;;;;11.48;7.32;;;;;;;;;;5010091;28;20387;-72
2022/06/22 12:06:39;;;;;;;9.48;7.35;;;;;;;;;;5011429;28;20028;-73
2022/06/22 12:09:05;;;;;;;14.45;6.82;;;;;;;;;;4999296;28;20066;-75
2022/06/22 12:11:54;;;;;;;11.38;7.63;;;;;;;;;;5001625;28;20427;-73
2022/06/22 12:17:31;;;;;;;17.48;9.65;;;;;;;;;;5010311;28;20052;-74
2022/06/22 12:20:00;;;;;;;11.10;8.32;;;;;;;;;;5008072;28;20068;-73
2022/06/22 12:22:26;;;;;;;8.95;7.55;;;;;;;;;;5007558;28;20798;-71
2022/06/22 12:25:01;;;;;;;10.95;8.82;;;;;;;;;;5003663;28;20042;-74
2022/06/22 12:27:48;;;;;;;14.57;9.20;;;;;;;;;;5000548;28;20033;-74
2022/06/22 12:30:16;;;;;;;12.02;8.00;;;;;;;;;;4961329;28;20058;-71
2022/06/22 12:32:50;;;;;;;13.75;9.13;;;;;;;;;;4974486;28;20058;-72
2022/06/22 12:35:39;;;;;;;10.90;7.15;;;;;;;;;;4989617;28;20475;-72
2022/06/22 12:38:24;;;;;;;15.05;9.80;;;;;;;;;;4961876;28;20125;-74
2022/06/22 12:40:50;;;;;;;14.70;9.15;;;;;;;;;;4986709;28;20483;-72
2022/06/22 12:43:25;;;;;;;18.27;9.32;;;;;;;;;;4988625;28;20554;-71
2022/06/22 12:45:55;;;;;;;12.00;7.40;;;;;;;;;;4989771;28;20120;-72
2022/06/22 12:48:21;;;;;;;;;;;;;;;;;;4970410;28;20025;-72
2022/06/22 12:50:50;;;;;;;9.75;7.13;;;;;;;;;;4980232;28;19913;-73
2022/06/22 12:53:24;;;;;;;12.88;6.22;;;;;;;;;;4990408;28;20046;-72
2022/06/22 12:55:53;;;;;;;12.73;6.28;;;;;;;;;;4988981;28;20042;-72
2022/06/22 12:58:19;;;;;;;11.13;5.75;;;;;;;;;;4989260;28;20475;-73
2022/06/22 13:00:45;;;;;;;13.48;5.15;;;;;;;;;;4991437;28;20041;-73
2022/06/22 13:03:21;;;;;;;10.25;4.90;;;;;;;;;;4983053;28;20480;-72
2022/06/22 13:05:47;;;;;;;12.05;5.65;;;;;;;;;;4993267;28;20089;-72
2022/06/22 13:08:20;;;;;;;11.88;5.53;;;;;;;;;;4993309;28;20394;-72
2022/06/22 13:10:47;;;;;;;11.68;4.63;;;;;;;;;;4993897;28;20030;-71
2022/06/22 13:13:22;;;;;;;12.65;5.10;;;;;;;;;;4987651;28;20380;-73
2022/06/22 13:15:48;;;;;;;11.88;4.78;;;;;;;;;;4994471;28;20479;-73
2022/06/22 13:18:26;;;;;;;12.95;5.70;;;;;;;;;;4987805;28;20110;-71
2022/06/22 13:20:52;;;;;;;11.98;4.65;;;;;;;;;;4986021;28;20060;-73
2022/06/22 13:23:37;;;;;;;8.68;5.28;;;;;;;;;;4990589;28;20074;-73
2022/06/22 13:26:22;;;;;;;11.02;4.47;;;;;;;;;;4994503;28;20467;-73
2022/06/22 13:28:48;;;;;;;10.93;4.63;;;;;;;;;;4988611;28;20027;-73
2022/06/22 13:31:19;;;;;;;13.20;5.53;;;;;;;;;;4980440;28;20130;-73
2022/06/22 13:33:51;;;;;;;13.23;5.53;;;;;;;;;;4985570;28;20041;-72
2022/06/22 13:36:23;;;;;;;15.95;5.35;;;;;;;;;;4985225;28;20506;-72
2022/06/22 13:39:09;;;;;;;12.35;4.90;;;;;;;;;;4993541;28;20057;-73
2022/06/22 13:41:53;;;;;;;10.80;4.30;;;;;;;;;;4991423;28;20030;-71
2022/06/22 13:44:32;;;;;;;13.20;4.95;;;;;;;;;;4984112;28;20378;-72
2022/06/22 13:47:17;;;;;;;14.10;4.57;;;;;;;;;;4987545;28;20023;-73
2022/06/22 13:50:14;;;;;;;12.50;4.63;;;;;;;;;;4993282;28;20050;-73
2022/06/22 13:53:02;;;;;;;22.25;5.10;;;;;;;;;;4985665;28;20396;-72
2022/06/22 13:55:41;;;;;;;14.38;5.45;;;;;;;;;;4972600;28;20088;-73
2022/06/22 13:58:14;;;;;;;14.55;5.28;;;;;;;;;;4983526;28;20023;-78
2022/06/22 14:00:46;;;;;;;11.77;4.40;;;;;;;;;;4992896;28;20064;-73
2022/06/22 14:03:12;;;;;;;19.40;5.10;;;;;;;;;;4975424;28;20089;-72
2022/06/22 14:05:38;;;;;;;11.70;4.80;;;;;;;;;;4992613;28;20019;-73
2022/06/22 14:08:13;;;;;;;13.52;4.85;;;;;;;;;;4993691;28;20026;-72
2022/06/22 14:11:09;;;;;;;12.13;6.28;;;;;;;;;;4985504;28;20019;-72
2022/06/22 14:13:54;;;;;;;13.90;5.63;;;;;;;;;;4927667;28;20043;-72
2022/06/22 14:16:26;;;;;;;11.48;4.85;;;;;;;;;;4985391;28;20546;-72
2022/06/22 14:19:02;;;;;;;17.00;5.53;;;;;;;;;;4991613;28;20113;-73
2022/06/22 14:21:31;;;;;;;12.32;5.72;;;;;;;;;;4980584;28;20011;-73
2022/06/22 14:23:57;;;;;;;12.13;4.78;;;;;;;;;;4974853;28;20383;-73
2022/06/22 14:26:41;;;;;;;13.95;5.95;;;;;;;;;;4983849;28;20030;-73
2022/06/22 14:29:07;;;;;;;14.25;5.80;;;;;;;;;;4986501;28;20066;-75
2022/06/22 14:31:57;;;;;;;12.18;5.25;;;;;;;;;;5010143;28;20144;-71
2022/06/22 14:34:23;;;;;;;13.50;5.18;;;;;;;;;;5006770;28;20029;-72
2022/06/22 14:36:53;;;;;;;18.60;5.20;;;;;;;;;;5013056;28;20021;-73
2022/06/22 14:39:31;;;;;;;15.95;4.50;;;;;;;;;;5012618;28;20030;-71
2022/06/22 14:42:00;;;;;;;17.35;5.10;;;;;;;;;;5011689;28;20022;-73
2022/06/22 14:44:39;;;;;;;12.98;4.60;;;;;;;;;;5007876;28;20040;-72
2022/06/22 14:47:23;;;;;;;15.23;5.25;;;;;;;;;;5011747;28;20077;-72
2022/06/22 14:49:49;;;;;;;10.80;4.63;;;;;;;;;;5004589;28;20053;-71
2022/06/22 14:52:18;;;;;;;12.10;4.90;;;;;;;;;;5009136;28;20462;-72
2022/06/22 14:54:47;;;;;;;17.92;5.85;;;;;;;;;;5009046;28;20390;-71
2022/06/22 14:57:34;;;;;;;13.88;4.20;;;;;;;;;;5011892;28;20363;-72
2022/06/22 15:00:18;;;;;;;13.73;4.93;;;;;;;;;;5011491;28;20076;-72
2022/06/22 15:02:59;;;;;;;12.15;4.43;;;;;;;;;;4999915;28;20518;-72
2022/06/22 15:05:29;;;;;;;18.17;4.40;;;;;;;;;;5003339;28;20038;-72
2022/06/22 15:08:04;;;;;;;13.10;4.22;;;;;;;;;;5011313;28;20033;-73
2022/06/22 15:10:41;;;;;;;15.38;4.97;;;;;;;;;;5006352;28;20026;-72
2022/06/22 15:13:25;;;;;;;16.90;5.07;;;;;;;;;;5004605;28;20042;-74
2022/06/22 15:15:56;;;;;;;13.88;4.32;;;;;;;;;;5012469;28;20017;-72
2022/06/22 15:18:32;;;;;;;15.27;4.32;;;;;;;;;;5005591;28;20026;-72